sim
Sign-in with your pilot id or email,
or register
Callsign
Passwort

Schedule Details

Flight Number: OEC443
Departure: Gothenburg Landvetter Airport (ESGG) at Time
Arrival: Alicante Airport (LEAL) at Time

Weather Information
Getting current METAR information for ESGG 271820Z 19013KT 9999 BKN013 08/06 Q0999
Getting current METAR information for LEAL 271800Z 21005KT 160V260 CAVOK 18/08 Q1018 NOSIG

Schedule Frequency

Route Map